createdAt,value
2022-11-01T00:00:16.388Z,101149.81
2022-11-01T00:03:18.166Z,101154.34
2022-11-01T00:06:19.974Z,101159.81
2022-11-01T00:09:21.781Z,101149.28
2022-11-01T00:12:23.576Z,101148.91
2022-11-01T00:15:25.380Z,101137.47
2022-11-01T00:18:27.233Z,101134.28
2022-11-01T00:21:29.031Z,101135.44
2022-11-01T00:24:33.779Z,101141.50
2022-11-01T00:27:35.630Z,101138.47
2022-11-01T00:30:38.037Z,101137.84
2022-11-01T00:33:39.891Z,101146.47
2022-11-01T00:36:41.683Z,101138.25
2022-11-01T00:39:43.465Z,101129.47
2022-11-01T00:42:45.268Z,101135.16
2022-11-01T00:45:47.074Z,101138.75
2022-11-01T00:48:49.572Z,101131.66
2022-11-01T00:51:52.221Z,101128.16
2022-11-01T00:54:54.083Z,101119.28
2022-11-01T00:57:55.886Z,101127.38
2022-11-01T01:00:57.791Z,101122.13
2022-11-01T01:03:59.655Z,101127.31
2022-11-01T01:07:01.463Z,101122.50
2022-11-01T01:10:03.950Z,101115.22
2022-11-01T01:13:05.937Z,101097.31
2022-11-01T01:16:08.949Z,101103.84
2022-11-01T01:19:10.758Z,101105.94
2022-11-01T01:22:12.559Z,101104.69
2022-11-01T01:25:14.364Z,101106.00
2022-11-01T01:28:16.193Z,101098.06
2022-11-01T01:31:18.021Z,101082.41
2022-11-01T01:34:19.808Z,101073.84
2022-11-01T01:37:21.612Z,101080.25
2022-11-01T01:40:23.383Z,101087.63
2022-11-01T01:43:29.236Z,101085.38
2022-11-01T01:46:31.008Z,101084.13
2022-11-01T01:49:32.853Z,101086.31
2022-11-01T01:52:44.972Z,101086.97
2022-11-01T01:56:03.545Z,101070.44
2022-11-01T01:59:06.094Z,101087.03
2022-11-01T02:02:08.183Z,101077.31
2022-11-01T02:05:16.280Z,101079.88
2022-11-01T02:08:26.612Z,101069.50
2022-11-01T02:11:28.477Z,101073.28
2022-11-01T02:14:30.267Z,101072.62
2022-11-01T02:17:43.888Z,101067.22
2022-11-01T02:21:04.449Z,101064.03
2022-11-01T02:24:15.538Z,101068.13
2022-11-01T02:27:17.261Z,101063.13
2022-11-01T02:30:19.488Z,101072.06
2022-11-01T02:33:28.611Z,101077.44
2022-11-01T02:36:36.358Z,101059.59
2022-11-01T02:39:39.736Z,101055.72
2022-11-01T02:42:45.059Z,101048.09
2022-11-01T02:45:48.085Z,101047.78
2022-11-01T02:48:49.872Z,101035.38
2022-11-01T02:51:51.644Z,101036.25
2022-11-01T02:54:57.489Z,101038.41
2022-11-01T02:58:25.706Z,101041.59
2022-11-01T03:01:28.254Z,101039.53
2022-11-01T03:04:30.140Z,101044.50
2022-11-01T03:07:31.939Z,101048.19
2022-11-01T03:10:53.983Z,101051.56
2022-11-01T03:14:13.797Z,101055.00
2022-11-01T03:17:15.506Z,101046.41
2022-11-01T03:20:49.747Z,101061.00
2022-11-01T03:24:02.050Z,101054.41
2022-11-01T03:27:06.781Z,101060.28
2022-11-01T03:30:09.705Z,101055.06
2022-11-01T03:33:12.675Z,101053.38
2022-11-01T03:36:15.150Z,101060.50
2022-11-01T03:39:20.901Z,101057.41
2022-11-01T03:42:22.723Z,101062.66
2022-11-01T03:45:25.025Z,101061.03
2022-11-01T03:48:26.852Z,101055.41
2022-11-01T03:51:28.816Z,101051.25
2022-11-01T03:54:30.617Z,101054.75
2022-11-01T03:57:32.423Z,101057.56
2022-11-01T04:00:37.078Z,101053.69
2022-11-01T04:03:39.026Z,101042.03
2022-11-01T04:06:40.805Z,101046.00
2022-11-01T04:09:42.587Z,101032.25
2022-11-01T04:12:44.996Z,101029.53
2022-11-01T04:16:05.454Z,101031.38
2022-11-01T04:19:26.205Z,101024.25
2022-11-01T04:22:28.013Z,101026.06
2022-11-01T04:25:30.030Z,101015.81
2022-11-01T04:28:31.845Z,101025.78
2022-11-01T04:31:34.938Z,101028.56
2022-11-01T04:34:42.551Z,101025.69
2022-11-01T04:37:44.350Z,101028.75
2022-11-01T04:40:46.181Z,101030.97
2022-11-01T04:43:47.952Z,101022.03
2022-11-01T04:46:49.767Z,101021.84
2022-11-01T04:49:51.576Z,101023.87
2022-11-01T04:52:53.398Z,101031.78
2022-11-01T04:55:55.473Z,101040.16
2022-11-01T04:58:57.291Z,101031.50
2022-11-01T05:01:59.156Z,101028.25
2022-11-01T05:05:01.092Z,101027.81
2022-11-01T05:08:03.818Z,101028.75
2022-11-01T05:11:05.752Z,101031.25
2022-11-01T05:14:08.295Z,101033.81
2022-11-01T05:17:10.112Z,101022.03
2022-11-01T05:20:11.999Z,101031.16
2022-11-01T05:23:13.911Z,101027.25
2022-11-01T05:26:15.729Z,101022.81
2022-11-01T05:29:24.798Z,101021.13
2022-11-01T05:32:35.635Z,101021.00
2022-11-01T05:35:37.481Z,101012.53
2022-11-01T05:38:39.331Z,101017.06
2022-11-01T05:41:41.236Z,101024.66
2022-11-01T05:44:43.019Z,101027.28
2022-11-01T05:47:44.863Z,101020.13
2022-11-01T05:50:47.093Z,101022.97
2022-11-01T05:53:49.616Z,101024.09
2022-11-01T05:56:51.402Z,101027.94
2022-11-01T05:59:53.200Z,101023.94
2022-11-01T06:02:57.004Z,101031.31
2022-11-01T06:05:58.845Z,101024.75
2022-11-01T06:09:00.668Z,101038.56
2022-11-01T06:12:02.470Z,101031.78
2022-11-01T06:15:04.421Z,101039.88
2022-11-01T06:18:06.474Z,101047.34
2022-11-01T06:21:08.409Z,101037.94
2022-11-01T06:24:10.618Z,101047.84
2022-11-01T06:27:12.886Z,101037.50
2022-11-01T06:30:14.857Z,101042.94
2022-11-01T06:33:16.706Z,101038.53
2022-11-01T06:36:18.542Z,101038.44
2022-11-01T06:39:20.364Z,101044.81
2022-11-01T06:42:22.177Z,101050.78
2022-11-01T06:45:23.974Z,101048.88
2022-11-01T06:48:25.762Z,101049.69
2022-11-01T06:51:27.859Z,101053.78
2022-11-01T06:54:29.686Z,101048.47
2022-11-01T06:57:31.459Z,101047.91
2022-11-01T07:00:33.263Z,101060.56
2022-11-01T07:03:35.054Z,101058.22
2022-11-01T07:06:36.858Z,101066.22
2022-11-01T07:09:38.633Z,101062.97
2022-11-01T07:12:40.465Z,101057.13
2022-11-01T07:15:42.291Z,101065.66
2022-11-01T07:18:44.849Z,101057.87
2022-11-01T07:21:46.632Z,101058.62
2022-11-01T07:24:48.440Z,101059.19
2022-11-01T07:27:50.254Z,101069.03
2022-11-01T07:30:52.603Z,101060.28
2022-11-01T07:33:54.409Z,101061.13
2022-11-01T07:36:56.195Z,101056.97
2022-11-01T07:39:58.021Z,101068.47
2022-11-01T07:43:00.286Z,101064.09
2022-11-01T07:46:04.261Z,101066.44
2022-11-01T07:49:06.033Z,101064.34
2022-11-01T07:52:07.913Z,101077.37
2022-11-01T07:55:09.748Z,101071.50
2022-11-01T07:58:11.746Z,101062.03
2022-11-01T08:01:13.646Z,101068.53
2022-11-01T08:04:15.500Z,101064.66
2022-11-01T08:07:17.946Z,101067.13
2022-11-01T08:10:19.751Z,101065.06
2022-11-01T08:13:25.006Z,101060.47
2022-11-01T08:16:26.817Z,101059.53
2022-11-01T08:19:28.601Z,101056.72
2022-11-01T08:22:30.397Z,101053.66
2022-11-01T08:25:32.324Z,101048.97
2022-11-01T08:28:34.140Z,101041.72
2022-11-01T08:31:39.909Z,101049.63
2022-11-01T08:34:41.704Z,101048.97
2022-11-01T08:37:52.800Z,101057.28
2022-11-01T08:40:54.899Z,101061.25
2022-11-01T08:43:59.651Z,101068.78
2022-11-01T08:47:01.732Z,101069.94
2022-11-01T08:50:05.003Z,101068.16
2022-11-01T08:53:11.852Z,101060.81
2022-11-01T08:56:13.661Z,101049.47
2022-11-01T08:59:15.454Z,101039.25
2022-11-01T09:02:17.542Z,101049.53
2022-11-01T09:05:19.809Z,101039.84
2022-11-01T09:08:21.647Z,101047.66
2022-11-01T09:11:23.980Z,101055.22
2022-11-01T09:14:26.311Z,101051.00
2022-11-01T09:17:28.147Z,101053.00
2022-11-01T09:20:29.917Z,101049.44
2022-11-01T09:23:31.710Z,101049.56
2022-11-01T09:26:33.533Z,101043.78
2022-11-01T09:29:35.592Z,101039.16
2022-11-01T09:32:37.472Z,101046.19
2022-11-01T09:35:39.289Z,101046.41
2022-11-01T09:38:41.127Z,101037.28
2022-11-01T09:41:47.216Z,101041.53
2022-11-01T09:44:49.702Z,101039.94
2022-11-01T09:47:52.488Z,101044.50
2022-11-01T09:50:54.284Z,101053.44
2022-11-01T09:53:56.874Z,101033.41
2022-11-01T09:57:14.174Z,101036.69
2022-11-01T10:00:16.441Z,101035.44
2022-11-01T10:03:36.999Z,101034.38
2022-11-01T10:06:46.511Z,101032.44
2022-11-01T10:09:56.432Z,101013.97
2022-11-01T10:13:11.058Z,101024.63
2022-11-01T10:16:31.836Z,101028.47
2022-11-01T10:19:35.411Z,101025.66
2022-11-01T10:22:37.204Z,101028.12
2022-11-01T10:25:39.050Z,101027.28
2022-11-01T10:28:43.852Z,101014.62
2022-11-01T10:31:45.999Z,101012.25
2022-11-01T10:34:47.867Z,101008.12
2022-11-01T10:38:11.165Z,101022.00
2022-11-01T10:41:19.001Z,101012.25
2022-11-01T10:44:31.025Z,101014.53
2022-11-01T10:47:32.846Z,101022.53
2022-11-01T10:50:34.628Z,101008.44
2022-11-01T10:53:44.527Z,101005.50
2022-11-01T10:56:47.232Z,101014.28
2022-11-01T10:59:49.015Z,101003.53
2022-11-01T11:02:52.084Z,101002.63
2022-11-01T11:05:54.060Z,101004.19
2022-11-01T11:08:55.896Z,101001.75
2022-11-01T11:11:58.904Z,101003.28
2022-11-01T11:15:04.761Z,101003.81
2022-11-01T11:18:09.154Z,101002.00
2022-11-01T11:21:11.828Z,100997.41
2022-11-01T11:24:21.055Z,100993.97
2022-11-01T11:27:23.665Z,100993.75
2022-11-01T11:30:30.016Z,100992.69
2022-11-01T11:33:31.901Z,100982.00
2022-11-01T11:36:34.762Z,100986.06
2022-11-01T11:39:37.087Z,100969.44
2022-11-01T11:42:38.923Z,100974.16
2022-11-01T11:45:40.733Z,100970.28
2022-11-01T11:48:49.914Z,100965.97
2022-11-01T11:51:51.767Z,100980.00
2022-11-01T11:54:53.579Z,100982.19
2022-11-01T11:57:55.401Z,100975.28
2022-11-01T12:01:01.625Z,100978.28
2022-11-01T12:04:07.679Z,100972.31
2022-11-01T12:07:23.030Z,100967.28
2022-11-01T12:10:27.803Z,100967.59
2022-11-01T12:13:33.892Z,100970.09
2022-11-01T12:16:44.442Z,100953.09
2022-11-01T12:19:46.284Z,100960.44
2022-11-01T12:22:56.561Z,100952.59
2022-11-01T12:25:59.072Z,100959.41
2022-11-01T12:29:04.017Z,100951.87
2022-11-01T12:32:16.626Z,100947.34
2022-11-01T12:35:26.345Z,100951.84
2022-11-01T12:38:43.547Z,100947.00
2022-11-01T12:41:47.716Z,100937.69
2022-11-01T12:44:51.454Z,100929.63
2022-11-01T12:47:54.817Z,100933.03
2022-11-01T12:50:59.758Z,100927.50
2022-11-01T12:54:06.117Z,100923.78
2022-11-01T12:57:18.333Z,100921.69
2022-11-01T13:00:21.318Z,100914.47
2022-11-01T13:03:29.399Z,100916.97
2022-11-01T13:06:47.020Z,100908.13
2022-11-01T13:09:55.243Z,100917.06
2022-11-01T13:13:03.516Z,100920.81
2022-11-01T13:16:11.417Z,100909.59
2022-11-01T13:19:23.408Z,100922.88
2022-11-01T13:22:32.768Z,100918.94
2022-11-01T13:25:34.526Z,100922.66
2022-11-01T13:28:42.357Z,100914.97
2022-11-01T13:31:44.485Z,100913.16
2022-11-01T13:34:49.845Z,100897.41
2022-11-01T13:38:11.872Z,100902.66
2022-11-01T13:41:22.736Z,100892.88
2022-11-01T13:44:25.367Z,100903.41
2022-11-01T13:47:36.062Z,100899.25
2022-11-01T13:50:43.819Z,100890.47
2022-11-01T13:53:46.791Z,100897.66
2022-11-01T13:57:07.159Z,100899.19
2022-11-01T14:00:28.885Z,100900.50
2022-11-01T14:03:32.416Z,100904.50
2022-11-01T14:06:37.742Z,100899.50
2022-11-01T14:09:49.394Z,100904.09
2022-11-01T14:12:57.020Z,100896.12
2022-11-01T14:15:59.839Z,100890.31
2022-11-01T14:19:02.705Z,100897.94
2022-11-01T14:22:11.487Z,100899.03
2022-11-01T14:25:13.515Z,100894.50
2022-11-01T14:28:18.461Z,100894.63
2022-11-01T14:31:22.207Z,100895.63
2022-11-01T14:34:25.388Z,100902.81
2022-11-01T14:37:28.483Z,100899.31
2022-11-01T14:40:32.785Z,100904.94
2022-11-01T14:43:48.233Z,100901.47
2022-11-01T14:46:50.057Z,100900.00
2022-11-01T14:49:53.037Z,100889.62
2022-11-01T14:53:13.349Z,100886.19
2022-11-01T14:56:22.154Z,100894.87
2022-11-01T14:59:28.360Z,100899.50
2022-11-01T15:02:30.389Z,100901.75
2022-11-01T15:05:32.335Z,100902.88
2022-11-01T15:08:39.799Z,100900.81
2022-11-01T15:11:41.670Z,100903.34
2022-11-01T15:14:44.429Z,100914.41
2022-11-01T15:17:56.585Z,100917.53
2022-11-01T15:20:58.827Z,100921.50
2022-11-01T15:24:02.150Z,100921.63
2022-11-01T15:27:05.306Z,100922.06
2022-11-01T15:30:07.677Z,100922.09
2022-11-01T15:33:13.774Z,100926.75
2022-11-01T15:36:19.561Z,100924.81
2022-11-01T15:39:25.032Z,100923.59
2022-11-01T15:42:33.888Z,100926.16
2022-11-01T15:45:36.063Z,100913.47
2022-11-01T15:48:37.887Z,100920.59
2022-11-01T15:51:45.696Z,100915.41
2022-11-01T15:54:49.434Z,100910.16
2022-11-01T15:57:53.044Z,100919.34
2022-11-01T16:00:56.038Z,100918.94
2022-11-01T16:04:05.013Z,100919.53
2022-11-01T16:07:07.432Z,100926.91
2022-11-01T16:10:14.400Z,100926.09
2022-11-01T16:13:16.468Z,100935.19
2022-11-01T16:16:18.385Z,100941.00
2022-11-01T16:19:39.525Z,100935.75
2022-11-01T16:22:41.376Z,100937.12
2022-11-01T16:25:43.153Z,100926.78
2022-11-01T16:28:45.561Z,100929.47
2022-11-01T16:31:47.372Z,100925.91
2022-11-01T16:34:49.206Z,100926.22
2022-11-01T16:37:51.009Z,100919.53
2022-11-01T16:40:56.860Z,100928.75
2022-11-01T16:43:59.700Z,100928.00
2022-11-01T16:47:01.520Z,100933.25
2022-11-01T16:50:03.441Z,100928.91
2022-11-01T16:53:08.751Z,100920.00
2022-11-01T16:59:39.158Z,100922.97
2022-11-01T17:02:41.232Z,100933.75
2022-11-01T17:05:43.110Z,100930.03
2022-11-01T17:08:44.981Z,100928.37
2022-11-01T17:11:51.084Z,100934.88
2022-11-01T17:14:53.578Z,100939.25
2022-11-01T17:17:56.005Z,100938.22
2022-11-01T17:20:58.489Z,100941.53
2022-11-01T17:24:00.304Z,100945.72
2022-11-01T17:27:02.899Z,100944.56
2022-11-01T17:30:05.052Z,100942.91
2022-11-01T17:33:06.884Z,100933.41
2022-11-01T17:36:12.345Z,100932.50
2022-11-01T17:39:14.157Z,100934.09
2022-11-01T17:42:15.977Z,100948.75
2022-11-01T17:45:17.844Z,100937.50
2022-11-01T17:48:19.671Z,100939.28
2022-11-01T17:51:23.167Z,100939.56
2022-11-01T17:57:28.377Z,100943.31
2022-11-01T18:00:30.292Z,100947.34
2022-11-01T18:03:32.104Z,100931.16
2022-11-01T18:06:33.912Z,100926.94
2022-11-01T18:09:35.713Z,100929.72
2022-11-01T18:12:42.992Z,100924.34
2022-11-01T18:15:50.390Z,100922.41
2022-11-01T18:19:00.380Z,100911.53
2022-11-01T18:22:20.925Z,100914.84
2022-11-01T18:25:28.326Z,100920.03
2022-11-01T18:28:30.732Z,100915.34
2022-11-01T18:31:33.924Z,100909.47
2022-11-01T18:34:38.669Z,100917.16
2022-11-01T18:37:41.433Z,100917.75
2022-11-01T18:40:43.209Z,100915.88
2022-11-01T18:43:44.993Z,100916.97
2022-11-01T18:47:07.865Z,100917.91
2022-11-01T18:50:16.503Z,100931.03
2022-11-01T18:53:19.053Z,100927.16
2022-11-01T18:56:21.917Z,100929.03
2022-11-01T18:59:29.467Z,100925.53
2022-11-01T19:02:32.996Z,100933.22
2022-11-01T19:05:34.849Z,100925.31
2022-11-01T19:08:36.859Z,100931.28
2022-11-01T19:11:38.682Z,100924.09
2022-11-01T19:14:40.502Z,100933.66
2022-11-01T19:17:47.958Z,100933.00
2022-11-01T19:20:50.635Z,100930.72
2022-11-01T19:23:54.166Z,100943.28
2022-11-01T19:26:56.284Z,100938.34
2022-11-01T19:29:58.245Z,100938.41
2022-11-01T19:33:20.345Z,100933.22
2022-11-01T19:36:25.726Z,100925.69
2022-11-01T19:39:27.461Z,100928.09
2022-11-01T19:42:30.185Z,100916.16
2022-11-01T19:45:33.009Z,100928.78
2022-11-01T19:48:34.836Z,100918.78
2022-11-01T19:51:36.649Z,100925.09
2022-11-01T19:54:39.217Z,100921.53
2022-11-01T19:57:44.032Z,100946.69
2022-11-01T20:00:47.173Z,100943.28
2022-11-01T20:03:51.657Z,100950.09
2022-11-01T20:07:12.385Z,100949.63
2022-11-01T20:10:15.061Z,100958.72
2022-11-01T20:13:17.868Z,100963.28
2022-11-01T20:16:19.649Z,100963.25
2022-11-01T20:19:21.844Z,100967.28
2022-11-01T20:22:23.631Z,100960.00
2022-11-01T20:25:29.996Z,100958.59
2022-11-01T20:28:31.881Z,100955.81
2022-11-01T20:31:33.699Z,100958.63
2022-11-01T20:34:36.279Z,100956.94
2022-11-01T20:37:38.260Z,100949.84
2022-11-01T20:40:40.110Z,100957.56
2022-11-01T20:43:42.022Z,100955.19
2022-11-01T20:46:43.828Z,100958.09
2022-11-01T20:49:45.639Z,100963.13
2022-11-01T20:52:49.273Z,100956.47
2022-11-01T20:55:51.133Z,100958.22
2022-11-01T20:58:52.974Z,100960.16
2022-11-01T21:01:55.034Z,100949.41
2022-11-01T21:05:01.404Z,100938.63
2022-11-01T21:08:14.890Z,100942.25
2022-11-01T21:11:43.789Z,100942.88
2022-11-01T21:14:46.094Z,100941.44
2022-11-01T21:17:49.604Z,100945.25
2022-11-01T21:20:51.421Z,100950.03
2022-11-01T21:23:53.231Z,100954.38
2022-11-01T21:27:05.483Z,100958.28
2022-11-01T21:30:15.610Z,100959.72
2022-11-01T21:33:36.555Z,100965.78
2022-11-01T21:36:38.458Z,100950.88
2022-11-01T21:39:40.281Z,100953.94
2022-11-01T21:42:44.389Z,100956.81
2022-11-01T21:45:46.326Z,100947.69
2022-11-01T21:48:48.260Z,100929.59
2022-11-01T21:51:50.250Z,100942.53
2022-11-01T21:54:53.031Z,100945.53
2022-11-01T21:57:55.171Z,100939.72
2022-11-01T22:00:57.059Z,100938.13
2022-11-01T22:03:58.928Z,100944.91
2022-11-01T22:07:01.377Z,100941.06
2022-11-01T22:10:03.266Z,100954.16
2022-11-01T22:13:06.962Z,100954.22
2022-11-01T22:16:09.531Z,100946.38
2022-11-01T22:19:11.421Z,100950.41
2022-11-01T22:22:13.215Z,100953.50
2022-11-01T22:25:15.081Z,100948.69
2022-11-01T22:28:16.932Z,100962.19
2022-11-01T22:31:19.109Z,100958.84
2022-11-01T22:34:21.320Z,100950.31
2022-11-01T22:37:23.836Z,100952.16
2022-11-01T22:40:25.614Z,100950.28
2022-11-01T22:43:27.438Z,100943.69
2022-11-01T22:46:30.396Z,100937.03
2022-11-01T22:49:35.983Z,100946.69
2022-11-01T22:52:39.105Z,100954.28
2022-11-01T22:55:42.050Z,100956.53
2022-11-01T22:58:43.879Z,100964.69
2022-11-01T23:01:45.803Z,100968.50
2022-11-01T23:04:47.993Z,100967.41
2022-11-01T23:07:50.730Z,100947.44
2022-11-01T23:10:52.510Z,100947.22
2022-11-01T23:14:13.101Z,100936.16
2022-11-01T23:17:25.448Z,100951.06
2022-11-01T23:20:27.293Z,100942.31
2022-11-01T23:23:29.088Z,100943.72
2022-11-01T23:26:30.879Z,100946.75
2022-11-01T23:29:32.686Z,100952.19
2022-11-01T23:32:34.464Z,100963.16
2022-11-01T23:35:36.645Z,100959.13
2022-11-01T23:38:39.226Z,100962.59
2022-11-01T23:41:48.321Z,100968.50
2022-11-01T23:44:50.651Z,100969.03
2022-11-01T23:47:52.558Z,100972.50
2022-11-01T23:50:54.422Z,100980.50
2022-11-01T23:53:56.228Z,100983.75
2022-11-01T23:56:58.012Z,100983.44
2022-11-01T23:59:59.813Z,100985.47
